createdAt,value
2019-05-26T00:01:13.157Z,5.03
2019-05-26T00:04:16.845Z,5.27
2019-05-26T00:07:30.092Z,5.37
2019-05-26T00:10:26.302Z,5.07
2019-05-26T00:13:29.977Z,5.63
2019-05-26T00:16:33.814Z,4.90
2019-05-26T00:19:37.533Z,4.67
2019-05-26T00:22:41.278Z,5.33
2019-05-26T00:25:44.969Z,5.27
2019-05-26T00:28:48.667Z,5.50
2019-05-26T00:31:52.405Z,5.57
2019-05-26T00:34:56.106Z,5.47
2019-05-26T00:37:59.858Z,5.53
2019-05-26T00:41:03.557Z,5.97
2019-05-26T00:44:07.259Z,4.80
2019-05-26T00:47:11.089Z,5.27
2019-05-26T00:50:15.005Z,5.83
2019-05-26T00:53:19.673Z,5.50
2019-05-26T00:56:23.391Z,5.80
2019-05-26T00:59:27.152Z,7.80
2019-05-26T01:02:30.873Z,5.33
2019-05-26T01:05:34.525Z,5.83
2019-05-26T01:08:38.291Z,5.30
2019-05-26T01:11:42.079Z,5.90
2019-05-26T01:14:45.796Z,5.30
2019-05-26T01:17:49.631Z,4.83
2019-05-26T01:20:53.407Z,6.63
2019-05-26T01:23:57.073Z,6.43
2019-05-26T01:27:01.186Z,6.53
2019-05-26T01:30:05.386Z,8.23
2019-05-26T01:33:09.135Z,7.03
2019-05-26T01:36:13.013Z,6.53
2019-05-26T01:39:16.686Z,6.17
2019-05-26T01:42:20.383Z,7.33
2019-05-26T01:45:24.315Z,6.92
2019-05-26T01:48:28.036Z,5.50
2019-05-26T01:51:31.746Z,6.60
2019-05-26T01:54:35.421Z,6.27
2019-05-26T01:57:39.110Z,6.47
2019-05-26T02:00:42.846Z,5.50
2019-05-26T02:03:46.650Z,6.10
2019-05-26T02:06:50.339Z,5.70
2019-05-26T02:09:54.025Z,6.53
2019-05-26T02:12:57.833Z,7.50
2019-05-26T02:16:01.566Z,6.40
2019-05-26T02:19:05.367Z,6.17
2019-05-26T02:22:09.066Z,7.60
2019-05-26T02:25:13.097Z,6.78
2019-05-26T02:28:16.782Z,6.77
2019-05-26T02:31:20.479Z,8.00
2019-05-26T02:34:24.253Z,7.30
2019-05-26T02:37:27.978Z,7.40
2019-05-26T02:40:31.706Z,8.63
2019-05-26T02:43:35.538Z,9.07
2019-05-26T02:46:39.226Z,7.50
2019-05-26T02:49:42.922Z,7.27
2019-05-26T02:52:46.611Z,7.80
2019-05-26T02:55:50.453Z,8.27
2019-05-26T02:58:54.198Z,7.63
2019-05-26T03:02:03.842Z,7.97
2019-05-26T03:05:03.378Z,7.83
2019-05-26T03:08:08.138Z,8.67
2019-05-26T03:11:13.494Z,8.67
2019-05-26T03:14:19.093Z,7.60
2019-05-26T03:17:24.450Z,7.97
2019-05-26T03:20:28.420Z,8.13
2019-05-26T03:23:32.484Z,8.47
2019-05-26T03:26:36.290Z,8.13
2019-05-26T03:29:39.970Z,8.60
2019-05-26T03:32:43.641Z,7.40
2019-05-26T03:35:47.521Z,8.85
2019-05-26T03:38:51.225Z,9.30
2019-05-26T03:41:54.963Z,9.50
2019-05-26T03:44:58.707Z,8.60
2019-05-26T03:48:02.410Z,8.70
2019-05-26T03:51:06.126Z,8.93
2019-05-26T03:54:09.989Z,8.90
2019-05-26T03:57:13.720Z,8.67
2019-05-26T04:00:17.588Z,8.88
2019-05-26T04:03:21.295Z,9.40
2019-05-26T04:06:24.941Z,9.57
2019-05-26T04:09:28.684Z,9.60
2019-05-26T04:12:32.519Z,9.60
2019-05-26T04:15:36.232Z,10.27
2019-05-26T04:18:40.016Z,9.37
2019-05-26T04:21:43.718Z,9.50
2019-05-26T04:24:47.398Z,9.60
2019-05-26T04:27:51.118Z,9.07
2019-05-26T04:30:54.837Z,10.00
2019-05-26T04:33:58.555Z,11.00
2019-05-26T04:37:02.273Z,9.87
2019-05-26T04:40:24.855Z,10.03
2019-05-26T04:43:14.833Z,9.90
2019-05-26T04:46:17.857Z,9.47
2019-05-26T04:49:21.705Z,9.80
2019-05-26T04:52:25.526Z,10.27
2019-05-26T04:55:29.769Z,11.27
2019-05-26T04:58:33.562Z,9.77
2019-05-26T05:01:37.391Z,9.33
2019-05-26T05:04:41.182Z,10.00
2019-05-26T05:07:45.166Z,9.23
2019-05-26T05:10:48.834Z,9.47
2019-05-26T05:13:52.579Z,9.73
2019-05-26T05:16:56.235Z,10.53
2019-05-26T05:19:59.983Z,10.43
2019-05-26T05:23:03.654Z,10.80
2019-05-26T05:26:07.363Z,10.10
2019-05-26T05:29:11.115Z,10.40
2019-05-26T05:32:14.875Z,10.57
2019-05-26T05:35:18.974Z,10.67
2019-05-26T05:38:22.635Z,10.73
2019-05-26T05:41:26.376Z,10.77
2019-05-26T05:44:30.075Z,10.00
2019-05-26T05:47:33.822Z,10.30
2019-05-26T05:50:39.282Z,10.10
2019-05-26T05:53:43.282Z,10.10
2019-05-26T05:56:47.022Z,10.90
2019-05-26T05:59:50.787Z,10.47
2019-05-26T06:02:54.526Z,9.70
2019-05-26T06:05:58.251Z,11.80
2019-05-26T06:09:01.910Z,9.70
2019-05-26T06:12:05.611Z,10.53
2019-05-26T06:15:11.684Z,8.97
2019-05-26T06:18:15.914Z,9.17
2019-05-26T06:21:19.692Z,8.00
2019-05-26T06:24:23.398Z,8.30
2019-05-26T06:27:27.088Z,8.03
2019-05-26T06:30:31.898Z,9.28
2019-05-26T06:33:35.641Z,7.37
2019-05-26T06:36:39.364Z,8.18
2019-05-26T06:39:43.106Z,8.33
2019-05-26T06:42:46.793Z,8.33
2019-05-26T06:45:50.546Z,7.77
2019-05-26T06:48:54.238Z,8.03
2019-05-26T06:51:57.926Z,7.80
2019-05-26T06:55:01.658Z,9.67
2019-05-26T06:58:05.449Z,7.67
2019-05-26T07:01:09.248Z,6.97
2019-05-26T07:04:13.004Z,6.60
2019-05-26T07:07:16.769Z,6.47
2019-05-26T07:10:20.507Z,6.30
2019-05-26T07:13:24.316Z,6.17
2019-05-26T07:16:37.498Z,5.20
2019-05-26T07:19:33.473Z,5.33
2019-05-26T07:22:37.382Z,5.87
2019-05-26T07:25:41.127Z,5.47
2019-05-26T07:28:44.902Z,5.70
2019-05-26T07:31:48.684Z,5.07
2019-05-26T07:34:52.358Z,4.70
2019-05-26T07:37:56.098Z,4.87
2019-05-26T07:40:59.774Z,5.10
2019-05-26T07:44:03.486Z,5.03
2019-05-26T07:47:07.198Z,5.20
2019-05-26T07:50:11.721Z,4.17
2019-05-26T07:53:15.466Z,3.80
2019-05-26T07:56:19.182Z,5.87
2019-05-26T07:59:26.221Z,3.67
2019-05-26T08:02:29.922Z,4.07
2019-05-26T08:05:33.615Z,4.23
2019-05-26T08:08:37.308Z,4.23
2019-05-26T08:11:41.004Z,4.50
2019-05-26T08:14:44.793Z,4.37
2019-05-26T08:17:48.510Z,3.80
2019-05-26T08:20:52.197Z,4.60
2019-05-26T08:23:55.997Z,3.77
2019-05-26T08:27:00.162Z,3.80
2019-05-26T08:30:04.729Z,5.20
2019-05-26T08:33:09.329Z,3.70
2019-05-26T08:36:13.041Z,4.20
2019-05-26T08:39:16.865Z,3.90
2019-05-26T08:42:27.214Z,3.33
2019-05-26T08:45:26.027Z,3.60
2019-05-26T08:48:29.743Z,3.63
2019-05-26T08:51:33.473Z,3.60
2019-05-26T08:54:37.228Z,3.37
2019-05-26T08:57:40.976Z,3.80
2019-05-26T09:00:44.755Z,2.90
2019-05-26T09:03:48.471Z,5.30
2019-05-26T09:06:53.090Z,3.70
2019-05-26T09:09:56.806Z,7.07
2019-05-26T09:13:01.658Z,4.17
2019-05-26T09:16:05.583Z,3.63
2019-05-26T09:19:09.293Z,3.50
2019-05-26T09:22:13.103Z,4.10
2019-05-26T09:25:16.884Z,3.03
2019-05-26T09:28:20.578Z,9.43
2019-05-26T09:31:24.303Z,4.97
2019-05-26T09:34:29.138Z,3.33
2019-05-26T09:37:32.875Z,4.90
2019-05-26T09:40:36.606Z,6.87
2019-05-26T09:43:40.318Z,3.27
2019-05-26T09:46:44.073Z,5.13
2019-05-26T09:49:47.791Z,3.50
2019-05-26T09:52:51.530Z,6.40
2019-05-26T09:55:55.237Z,4.00
2019-05-26T09:58:58.942Z,8.00
2019-05-26T10:02:02.745Z,5.70
2019-05-26T10:05:07.289Z,3.77
2019-05-26T10:08:11.404Z,7.20
2019-05-26T10:11:15.106Z,4.27
2019-05-26T10:14:18.818Z,4.13
2019-05-26T10:17:23.294Z,4.57
2019-05-26T10:20:27.187Z,4.90
2019-05-26T10:23:30.893Z,5.07
2019-05-26T10:26:34.639Z,4.80
2019-05-26T10:29:38.404Z,4.80
2019-05-26T10:32:42.112Z,5.50
2019-05-26T10:35:45.793Z,5.60
2019-05-26T10:38:49.525Z,5.20
2019-05-26T10:41:53.354Z,4.77
2019-05-26T10:44:57.175Z,8.23
2019-05-26T10:48:01.060Z,4.90
2019-05-26T10:51:06.862Z,5.63
2019-05-26T10:54:10.281Z,5.57
2019-05-26T10:57:14.034Z,5.50
2019-05-26T11:00:18.852Z,5.10
2019-05-26T11:03:22.534Z,7.47
2019-05-26T11:06:26.301Z,5.67
2019-05-26T11:09:29.981Z,5.20
2019-05-26T11:12:33.772Z,7.67
2019-05-26T11:15:37.514Z,5.10
2019-05-26T11:18:41.244Z,5.07
2019-05-26T11:21:45.046Z,6.00
2019-05-26T11:24:48.828Z,5.80
2019-05-26T11:27:52.602Z,4.58
2019-05-26T11:30:56.337Z,5.00
2019-05-26T11:34:00.097Z,4.90
2019-05-26T11:37:03.865Z,6.40
2019-05-26T11:40:08.007Z,4.53
2019-05-26T11:43:16.841Z,4.70
2019-05-26T11:46:17.487Z,9.70
2019-05-26T11:49:21.294Z,3.80
2019-05-26T11:52:25.005Z,5.63
2019-05-26T11:55:28.737Z,6.77
2019-05-26T11:58:32.467Z,7.83
2019-05-26T12:01:36.188Z,4.27
2019-05-26T12:04:39.870Z,3.83
2019-05-26T12:07:43.577Z,6.22
2019-05-26T12:10:47.281Z,3.77
2019-05-26T12:13:51.113Z,4.53
2019-05-26T12:16:54.897Z,4.07
2019-05-26T12:19:58.735Z,4.07
2019-05-26T12:23:02.494Z,4.63
2019-05-26T12:26:06.220Z,7.40
2019-05-26T12:29:09.984Z,4.40
2019-05-26T12:32:13.706Z,4.60
2019-05-26T12:35:17.769Z,4.17
2019-05-26T12:38:21.428Z,4.47
2019-05-26T12:41:25.718Z,4.77
2019-05-26T12:44:29.486Z,3.97
2019-05-26T12:47:33.199Z,5.20
2019-05-26T12:50:37.037Z,5.30
2019-05-26T12:53:40.814Z,4.87
2019-05-26T12:56:44.706Z,4.60
2019-05-26T12:59:48.477Z,4.60
2019-05-26T13:02:52.279Z,4.40
2019-05-26T13:05:55.956Z,5.80
2019-05-26T13:08:59.742Z,4.77
2019-05-26T13:12:03.485Z,4.67
2019-05-26T13:15:08.047Z,6.60
2019-05-26T13:18:11.885Z,5.17
2019-05-26T13:21:15.691Z,4.00
2019-05-26T13:24:19.374Z,3.98
2019-05-26T13:27:23.213Z,4.47
2019-05-26T13:30:27.580Z,4.50
2019-05-26T13:33:31.256Z,4.10
2019-05-26T13:36:34.954Z,4.17
2019-05-26T13:39:38.630Z,4.63
2019-05-26T13:42:42.382Z,4.37
2019-05-26T13:45:47.013Z,4.17
2019-05-26T13:48:50.727Z,3.63
2019-05-26T13:51:54.465Z,5.37
2019-05-26T13:54:58.177Z,3.33
2019-05-26T13:58:01.961Z,3.30
2019-05-26T14:01:05.766Z,3.37
2019-05-26T14:04:09.453Z,4.13
2019-05-26T14:07:13.148Z,3.57
2019-05-26T14:10:29.472Z,2.70
2019-05-26T14:13:35.185Z,3.63
2019-05-26T14:16:40.518Z,4.97
2019-05-26T14:19:46.934Z,3.00
2019-05-26T14:22:50.738Z,2.50
2019-05-26T14:25:54.535Z,4.17
2019-05-26T14:28:58.242Z,2.80
2019-05-26T14:32:01.988Z,3.80
2019-05-26T14:35:05.943Z,3.00
2019-05-26T14:38:09.735Z,3.53
2019-05-26T14:41:13.414Z,2.90
2019-05-26T14:44:17.113Z,2.70
2019-05-26T14:47:20.783Z,3.20
2019-05-26T14:50:24.726Z,5.13
2019-05-26T14:53:28.402Z,2.87
2019-05-26T14:56:32.502Z,2.70
2019-05-26T14:59:37.236Z,2.80
2019-05-26T15:02:40.976Z,2.50
2019-05-26T15:05:44.718Z,2.80
2019-05-26T15:08:48.453Z,3.00
2019-05-26T15:11:52.274Z,2.60
2019-05-26T15:14:56.119Z,3.10
2019-05-26T15:17:59.854Z,3.00
2019-05-26T15:21:03.686Z,2.77
2019-05-26T15:24:07.410Z,2.67
2019-05-26T15:27:11.230Z,2.87
2019-05-26T15:30:15.508Z,2.80
2019-05-26T15:33:19.261Z,4.97
2019-05-26T15:36:23.082Z,3.13
2019-05-26T15:39:26.749Z,3.23
2019-05-26T15:42:30.445Z,3.03
2019-05-26T15:45:34.157Z,4.10
2019-05-26T15:48:37.887Z,3.07
2019-05-26T15:51:41.646Z,3.60
2019-05-26T15:54:45.406Z,2.70
2019-05-26T15:57:49.278Z,3.23
2019-05-26T16:00:53.010Z,3.00
2019-05-26T16:03:56.885Z,3.03
2019-05-26T16:07:00.985Z,3.23
2019-05-26T16:10:05.187Z,3.10
2019-05-26T16:13:08.889Z,3.00
2019-05-26T16:16:13.702Z,3.27
2019-05-26T16:19:17.436Z,3.10
2019-05-26T16:22:21.147Z,2.80
2019-05-26T16:25:24.945Z,3.63
2019-05-26T16:28:28.677Z,3.90
2019-05-26T16:31:32.499Z,2.90
2019-05-26T16:34:36.215Z,2.80
2019-05-26T16:37:40.074Z,3.00
2019-05-26T16:40:43.727Z,3.07
2019-05-26T16:43:47.675Z,2.70
2019-05-26T16:46:56.367Z,3.00
2019-05-26T16:49:56.986Z,2.67
2019-05-26T16:53:00.930Z,2.20
2019-05-26T16:56:04.880Z,5.10
2019-05-26T16:59:08.571Z,2.50
2019-05-26T17:02:12.474Z,2.80
2019-05-26T17:05:16.318Z,2.50
2019-05-26T17:08:20.140Z,2.90
2019-05-26T17:11:23.810Z,2.33
2019-05-26T17:14:27.529Z,2.60
2019-05-26T17:17:31.414Z,2.70
2019-05-26T17:20:35.481Z,2.50
2019-05-26T17:23:39.260Z,2.27
2019-05-26T17:26:42.962Z,2.80
2019-05-26T17:29:46.809Z,2.73
2019-05-26T17:32:50.520Z,2.57
2019-05-26T17:35:54.329Z,3.10
2019-05-26T17:38:58.018Z,2.47
2019-05-26T17:42:01.909Z,2.80
2019-05-26T17:45:06.677Z,3.00
2019-05-26T17:48:10.374Z,3.37
2019-05-26T17:51:14.070Z,2.83
2019-05-26T17:54:17.807Z,2.20
2019-05-26T17:57:21.576Z,3.90
2019-05-26T18:00:26.283Z,2.70
2019-05-26T18:03:30.100Z,2.47
2019-05-26T18:06:33.969Z,3.40
2019-05-26T18:09:44.358Z,2.40
2019-05-26T18:12:43.272Z,2.60
2019-05-26T18:15:47.133Z,2.70
2019-05-26T18:18:50.915Z,2.80
2019-05-26T18:21:54.774Z,2.30
2019-05-26T18:24:59.402Z,2.90
2019-05-26T18:28:03.582Z,2.70
2019-05-26T18:31:07.342Z,2.70
2019-05-26T18:34:11.029Z,2.97
2019-05-26T18:37:14.717Z,2.87
2019-05-26T18:40:18.885Z,2.80
2019-05-26T18:43:22.703Z,2.90
2019-05-26T18:46:26.622Z,4.20
2019-05-26T18:49:30.509Z,3.43
2019-05-26T18:52:34.387Z,2.77
2019-05-26T18:55:38.122Z,3.07
2019-05-26T18:58:42.122Z,3.13
2019-05-26T19:01:46.106Z,2.70
2019-05-26T19:04:49.937Z,2.80
2019-05-26T19:07:54.211Z,3.00
2019-05-26T19:10:58.056Z,3.10
2019-05-26T19:14:01.910Z,3.37
2019-05-26T19:17:05.712Z,3.00
2019-05-26T19:20:15.941Z,2.83
2019-05-26T19:23:15.476Z,2.93
2019-05-26T19:26:19.210Z,2.80
2019-05-26T19:29:23.146Z,3.03
2019-05-26T19:32:27.018Z,3.10
2019-05-26T19:35:30.903Z,3.37
2019-05-26T19:38:34.728Z,2.93
2019-05-26T19:41:39.445Z,3.00
2019-05-26T19:44:43.290Z,2.93
2019-05-26T19:47:47.163Z,3.27
2019-05-26T19:50:50.860Z,3.43
2019-05-26T19:53:54.701Z,3.50
2019-05-26T19:56:58.610Z,4.00
2019-05-26T20:00:02.470Z,3.50
2019-05-26T20:03:06.651Z,3.40
2019-05-26T20:06:10.563Z,3.90
2019-05-26T20:09:14.291Z,4.60
2019-05-26T20:12:18.026Z,3.53
2019-05-26T20:15:21.954Z,4.57
2019-05-26T20:18:25.621Z,3.50
2019-05-26T20:21:29.329Z,3.60
2019-05-26T20:24:33.246Z,3.83
2019-05-26T20:27:37.063Z,3.53
2019-05-26T20:30:41.043Z,3.80
2019-05-26T20:33:44.742Z,3.30
2019-05-26T20:36:48.458Z,3.90
2019-05-26T20:39:52.134Z,3.73
2019-05-26T20:42:56.010Z,3.73
2019-05-26T20:45:59.918Z,3.20
2019-05-26T20:49:03.786Z,3.70
2019-05-26T20:52:07.750Z,3.27
2019-05-26T20:55:11.831Z,3.47
2019-05-26T20:58:15.798Z,3.40
2019-05-26T21:01:19.880Z,3.87
2019-05-26T21:04:24.498Z,4.00
2019-05-26T21:07:29.069Z,4.17
2019-05-26T21:10:33.626Z,4.10
2019-05-26T21:13:37.592Z,3.87
2019-05-26T21:16:41.276Z,3.70
2019-05-26T21:19:44.948Z,4.30
2019-05-26T21:22:48.813Z,4.20
2019-05-26T21:25:52.577Z,3.93
2019-05-26T21:28:56.322Z,3.77
2019-05-26T21:32:00.147Z,4.17
2019-05-26T21:35:04.520Z,3.77
2019-05-26T21:38:08.426Z,3.87
2019-05-26T21:41:12.144Z,3.77
2019-05-26T21:44:15.900Z,4.10
2019-05-26T21:47:19.742Z,4.67
2019-05-26T21:50:23.651Z,3.30
2019-05-26T21:53:27.519Z,3.80
2019-05-26T21:56:31.296Z,4.73
2019-05-26T21:59:35.134Z,4.87
2019-05-26T22:02:39.098Z,3.95
2019-05-26T22:05:42.786Z,4.50
2019-05-26T22:08:46.549Z,4.20
2019-05-26T22:11:50.290Z,3.90
2019-05-26T22:14:54.045Z,4.00
2019-05-26T22:17:57.761Z,4.40
2019-05-26T22:21:01.468Z,3.90
2019-05-26T22:24:05.264Z,4.10
2019-05-26T22:27:09.059Z,4.10
2019-05-26T22:30:13.086Z,3.70
2019-05-26T22:33:16.894Z,4.10
2019-05-26T22:36:20.638Z,4.50
2019-05-26T22:39:24.331Z,4.13
2019-05-26T22:42:28.089Z,4.20
2019-05-26T22:45:32.648Z,4.17
2019-05-26T22:48:36.450Z,4.60
2019-05-26T22:51:40.173Z,4.27
2019-05-26T22:54:43.910Z,4.93
2019-05-26T22:57:47.618Z,4.00
2019-05-26T23:00:51.326Z,3.90
2019-05-26T23:03:56.797Z,4.43
2019-05-26T23:07:00.466Z,3.83
2019-05-26T23:10:06.459Z,4.50
2019-05-26T23:13:10.224Z,4.20
2019-05-26T23:16:13.906Z,4.40
2019-05-26T23:19:19.768Z,4.90
2019-05-26T23:22:23.155Z,4.93
2019-05-26T23:25:26.968Z,4.50
2019-05-26T23:28:30.725Z,4.70
2019-05-26T23:31:34.478Z,5.37
2019-05-26T23:34:38.267Z,4.80
2019-05-26T23:37:41.970Z,4.07
2019-05-26T23:40:45.634Z,4.37
2019-05-26T23:43:49.391Z,4.60
2019-05-26T23:46:53.194Z,4.37
2019-05-26T23:49:56.909Z,4.70
2019-05-26T23:53:00.671Z,4.77
2019-05-26T23:56:04.376Z,4.83
2019-05-26T23:59:08.087Z,4.50
